sensor_id;sensor_type;location;lat;lon;timestamp;P1;durP1;ratioP1;P2;durP2;ratioP2
55031;SDS011;40928;51.076;7.950;2023-01-19T00:01:15;7.68;;;4.38;;
55031;SDS011;40928;51.076;7.950;2023-01-19T00:03:41;10.68;;;4.93;;
55031;SDS011;40928;51.076;7.950;2023-01-19T00:06:06;8.40;;;4.97;;
55031;SDS011;40928;51.076;7.950;2023-01-19T00:08:32;11.82;;;4.90;;
55031;SDS011;40928;51.076;7.950;2023-01-19T00:10:59;9.48;;;4.47;;
55031;SDS011;40928;51.076;7.950;2023-01-19T00:13:25;8.20;;;4.30;;
55031;SDS011;40928;51.076;7.950;2023-01-19T00:15:51;9.23;;;4.78;;
55031;SDS011;40928;51.076;7.950;2023-01-19T00:18:17;10.23;;;4.95;;
55031;SDS011;40928;51.076;7.950;2023-01-19T00:20:43;7.63;;;4.82;;
55031;SDS011;40928;51.076;7.950;2023-01-19T00:23:10;15.52;;;5.40;;
55031;SDS011;40928;51.076;7.950;2023-01-19T00:25:36;11.80;;;4.88;;
55031;SDS011;40928;51.076;7.950;2023-01-19T00:28:15;9.23;;;4.57;;
55031;SDS011;40928;51.076;7.950;2023-01-19T00:30:42;10.88;;;5.13;;
55031;SDS011;40928;51.076;7.950;2023-01-19T00:33:08;10.68;;;4.82;;
55031;SDS011;40928;51.076;7.950;2023-01-19T00:35:35;11.55;;;4.80;;
55031;SDS011;40928;51.076;7.950;2023-01-19T00:38:01;7.72;;;4.63;;
55031;SDS011;40928;51.076;7.950;2023-01-19T00:40:27;10.23;;;5.13;;
55031;SDS011;40928;51.076;7.950;2023-01-19T00:42:53;14.30;;;4.35;;
55031;SDS011;40928;51.076;7.950;2023-01-19T00:45:20;13.70;;;5.25;;
55031;SDS011;40928;51.076;7.950;2023-01-19T00:47:47;14.05;;;6.40;;
55031;SDS011;40928;51.076;7.950;2023-01-19T00:50:18;8.07;;;4.55;;
55031;SDS011;40928;51.076;7.950;2023-01-19T00:52:44;12.88;;;5.90;;
55031;SDS011;40928;51.076;7.950;2023-01-19T00:55:11;13.35;;;5.50;;
55031;SDS011;40928;51.076;7.950;2023-01-19T00:57:38;11.52;;;5.55;;
55031;SDS011;40928;51.076;7.950;2023-01-19T01:00:05;9.30;;;4.47;;
55031;SDS011;40928;51.076;7.950;2023-01-19T01:02:36;9.30;;;5.00;;
55031;SDS011;40928;51.076;7.950;2023-01-19T01:05:02;8.15;;;4.75;;
55031;SDS011;40928;51.076;7.950;2023-01-19T01:07:30;10.50;;;5.57;;
55031;SDS011;40928;51.076;7.950;2023-01-19T01:10:08;9.75;;;5.55;;
55031;SDS011;40928;51.076;7.950;2023-01-19T01:12:35;13.00;;;5.05;;
55031;SDS011;40928;51.076;7.950;2023-01-19T01:15:01;9.82;;;4.97;;
55031;SDS011;40928;51.076;7.950;2023-01-19T01:17:26;6.40;;;3.97;;
55031;SDS011;40928;51.076;7.950;2023-01-19T01:19:52;12.82;;;5.13;;
55031;SDS011;40928;51.076;7.950;2023-01-19T01:22:17;8.38;;;4.97;;
55031;SDS011;40928;51.076;7.950;2023-01-19T01:24:43;10.50;;;5.30;;
55031;SDS011;40928;51.076;7.950;2023-01-19T01:27:09;9.30;;;5.30;;
55031;SDS011;40928;51.076;7.950;2023-01-19T01:29:34;14.05;;;5.60;;
55031;SDS011;40928;51.076;7.950;2023-01-19T01:32:00;8.57;;;5.30;;
55031;SDS011;40928;51.076;7.950;2023-01-19T01:34:26;12.57;;;4.85;;
55031;SDS011;40928;51.076;7.950;2023-01-19T01:36:51;14.98;;;5.57;;
55031;SDS011;40928;51.076;7.950;2023-01-19T01:39:18;11.95;;;6.55;;
55031;SDS011;40928;51.076;7.950;2023-01-19T01:41:44;11.80;;;5.28;;
55031;SDS011;40928;51.076;7.950;2023-01-19T01:49:44;10.75;;;5.32;;
55031;SDS011;40928;51.076;7.950;2023-01-19T01:52:12;10.10;;;5.28;;
55031;SDS011;40928;51.076;7.950;2023-01-19T01:54:39;12.60;;;6.15;;
55031;SDS011;40928;51.076;7.950;2023-01-19T01:57:04;14.60;;;6.63;;
55031;SDS011;40928;51.076;7.950;2023-01-19T01:59:39;10.77;;;6.03;;
55031;SDS011;40928;51.076;7.950;2023-01-19T02:02:11;13.77;;;5.88;;
55031;SDS011;40928;51.076;7.950;2023-01-19T02:05:01;14.07;;;5.85;;
55031;SDS011;40928;51.076;7.950;2023-01-19T02:07:35;13.82;;;5.60;;
55031;SDS011;40928;51.076;7.950;2023-01-19T02:10:28;11.77;;;6.10;;
55031;SDS011;40928;51.076;7.950;2023-01-19T02:13:13;12.13;;;6.40;;
55031;SDS011;40928;51.076;7.950;2023-01-19T02:15:52;13.25;;;6.15;;
55031;SDS011;40928;51.076;7.950;2023-01-19T02:18:20;13.20;;;6.72;;
55031;SDS011;40928;51.076;7.950;2023-01-19T02:26:13;14.98;;;6.63;;
55031;SDS011;40928;51.076;7.950;2023-01-19T02:29:08;12.95;;;6.57;;
55031;SDS011;40928;51.076;7.950;2023-01-19T02:31:36;15.18;;;6.82;;
55031;SDS011;40928;51.076;7.950;2023-01-19T02:34:03;13.93;;;6.90;;
55031;SDS011;40928;51.076;7.950;2023-01-19T02:42:16;12.10;;;6.95;;
55031;SDS011;40928;51.076;7.950;2023-01-19T02:44:53;14.63;;;6.72;;
55031;SDS011;40928;51.076;7.950;2023-01-19T02:47:19;17.60;;;7.18;;
55031;SDS011;40928;51.076;7.950;2023-01-19T02:49:58;16.77;;;6.80;;
55031;SDS011;40928;51.076;7.950;2023-01-19T02:52:24;15.68;;;6.45;;
55031;SDS011;40928;51.076;7.950;2023-01-19T02:55:34;9.73;;;5.68;;
55031;SDS011;40928;51.076;7.950;2023-01-19T03:00:51;15.05;;;7.05;;
55031;SDS011;40928;51.076;7.950;2023-01-19T03:08:53;11.02;;;6.40;;
55031;SDS011;40928;51.076;7.950;2023-01-19T03:11:26;15.13;;;7.22;;
55031;SDS011;40928;51.076;7.950;2023-01-19T03:14:15;13.52;;;6.15;;
55031;SDS011;40928;51.076;7.950;2023-01-19T03:16:50;13.80;;;6.15;;
55031;SDS011;40928;51.076;7.950;2023-01-19T03:19:28;12.68;;;6.32;;
55031;SDS011;40928;51.076;7.950;2023-01-19T03:21:59;13.25;;;6.88;;
55031;SDS011;40928;51.076;7.950;2023-01-19T03:24:30;14.30;;;5.70;;
55031;SDS011;40928;51.076;7.950;2023-01-19T03:27:05;11.10;;;5.65;;
55031;SDS011;40928;51.076;7.950;2023-01-19T03:29:35;14.43;;;5.88;;
55031;SDS011;40928;51.076;7.950;2023-01-19T03:32:05;11.55;;;6.75;;
55031;SDS011;40928;51.076;7.950;2023-01-19T03:34:37;14.43;;;6.82;;
55031;SDS011;40928;51.076;7.950;2023-01-19T03:37:05;12.07;;;6.07;;
55031;SDS011;40928;51.076;7.950;2023-01-19T03:39:31;10.43;;;6.38;;
55031;SDS011;40928;51.076;7.950;2023-01-19T03:42:02;11.45;;;6.05;;
55031;SDS011;40928;51.076;7.950;2023-01-19T03:44:30;9.25;;;5.32;;
55031;SDS011;40928;51.076;7.950;2023-01-19T03:46:59;9.35;;;5.97;;
55031;SDS011;40928;51.076;7.950;2023-01-19T03:49:31;11.95;;;6.78;;
55031;SDS011;40928;51.076;7.950;2023-01-19T03:51:59;13.10;;;7.15;;
55031;SDS011;40928;51.076;7.950;2023-01-19T03:54:25;16.65;;;6.10;;
55031;SDS011;40928;51.076;7.950;2023-01-19T03:56:51;13.43;;;6.22;;
55031;SDS011;40928;51.076;7.950;2023-01-19T03:59:17;8.57;;;4.55;;
55031;SDS011;40928;51.076;7.950;2023-01-19T04:01:44;11.70;;;5.88;;
55031;SDS011;40928;51.076;7.950;2023-01-19T04:04:10;12.70;;;6.20;;
55031;SDS011;40928;51.076;7.950;2023-01-19T04:06:37;16.23;;;7.40;;
55031;SDS011;40928;51.076;7.950;2023-01-19T04:09:03;13.32;;;6.68;;
55031;SDS011;40928;51.076;7.950;2023-01-19T04:11:29;14.73;;;6.10;;
55031;SDS011;40928;51.076;7.950;2023-01-19T04:13:55;15.13;;;6.25;;
55031;SDS011;40928;51.076;7.950;2023-01-19T04:16:20;16.90;;;5.47;;
55031;SDS011;40928;51.076;7.950;2023-01-19T04:18:47;14.02;;;6.47;;
55031;SDS011;40928;51.076;7.950;2023-01-19T04:21:14;11.68;;;6.47;;
55031;SDS011;40928;51.076;7.950;2023-01-19T04:23:40;12.30;;;5.70;;
55031;SDS011;40928;51.076;7.950;2023-01-19T04:26:06;15.20;;;6.25;;
55031;SDS011;40928;51.076;7.950;2023-01-19T04:28:32;12.02;;;5.60;;
55031;SDS011;40928;51.076;7.950;2023-01-19T04:30:59;15.32;;;6.07;;
55031;SDS011;40928;51.076;7.950;2023-01-19T04:33:25;12.20;;;6.50;;
55031;SDS011;40928;51.076;7.950;2023-01-19T04:35:52;12.52;;;6.00;;
55031;SDS011;40928;51.076;7.950;2023-01-19T04:38:18;16.10;;;6.50;;
55031;SDS011;40928;51.076;7.950;2023-01-19T04:40:45;14.07;;;6.45;;
55031;SDS011;40928;51.076;7.950;2023-01-19T04:43:12;13.27;;;6.82;;
55031;SDS011;40928;51.076;7.950;2023-01-19T04:45:38;13.50;;;6.40;;
55031;SDS011;40928;51.076;7.950;2023-01-19T04:48:04;14.50;;;6.22;;
55031;SDS011;40928;51.076;7.950;2023-01-19T04:50:30;8.93;;;5.40;;
55031;SDS011;40928;51.076;7.950;2023-01-19T04:52:56;14.98;;;6.55;;
55031;SDS011;40928;51.076;7.950;2023-01-19T04:55:21;11.55;;;5.80;;
55031;SDS011;40928;51.076;7.950;2023-01-19T04:57:47;14.88;;;5.38;;
55031;SDS011;40928;51.076;7.950;2023-01-19T05:00:13;14.95;;;6.68;;
55031;SDS011;40928;51.076;7.950;2023-01-19T05:02:39;12.25;;;5.55;;
55031;SDS011;40928;51.076;7.950;2023-01-19T05:05:06;13.55;;;6.65;;
55031;SDS011;40928;51.076;7.950;2023-01-19T05:07:32;14.60;;;6.50;;
55031;SDS011;40928;51.076;7.950;2023-01-19T05:09:58;10.25;;;6.05;;
55031;SDS011;40928;51.076;7.950;2023-01-19T05:12:24;15.63;;;6.30;;
55031;SDS011;40928;51.076;7.950;2023-01-19T05:14:49;12.48;;;6.88;;
55031;SDS011;40928;51.076;7.950;2023-01-19T05:17:15;15.32;;;6.35;;
55031;SDS011;40928;51.076;7.950;2023-01-19T05:19:40;10.48;;;6.47;;
55031;SDS011;40928;51.076;7.950;2023-01-19T05:22:06;15.88;;;5.38;;
55031;SDS011;40928;51.076;7.950;2023-01-19T05:24:32;21.27;;;7.80;;
55031;SDS011;40928;51.076;7.950;2023-01-19T05:26:57;10.07;;;5.28;;
55031;SDS011;40928;51.076;7.950;2023-01-19T05:29:23;9.45;;;5.60;;
55031;SDS011;40928;51.076;7.950;2023-01-19T05:31:48;12.15;;;6.03;;
55031;SDS011;40928;51.076;7.950;2023-01-19T05:34:14;13.98;;;6.45;;
55031;SDS011;40928;51.076;7.950;2023-01-19T05:36:40;9.35;;;5.70;;
55031;SDS011;40928;51.076;7.950;2023-01-19T05:39:06;11.02;;;5.45;;
55031;SDS011;40928;51.076;7.950;2023-01-19T05:41:31;11.95;;;5.45;;
55031;SDS011;40928;51.076;7.950;2023-01-19T05:43:57;12.27;;;5.97;;
55031;SDS011;40928;51.076;7.950;2023-01-19T05:46:22;9.75;;;5.70;;
55031;SDS011;40928;51.076;7.950;2023-01-19T05:48:48;9.32;;;5.43;;
55031;SDS011;40928;51.076;7.950;2023-01-19T05:51:14;13.27;;;6.25;;
55031;SDS011;40928;51.076;7.950;2023-01-19T05:53:40;10.32;;;5.88;;
55031;SDS011;40928;51.076;7.950;2023-01-19T05:56:07;11.38;;;5.47;;
55031;SDS011;40928;51.076;7.950;2023-01-19T05:58:33;13.43;;;6.60;;
55031;SDS011;40928;51.076;7.950;2023-01-19T06:01:07;17.98;;;6.47;;
55031;SDS011;40928;51.076;7.950;2023-01-19T06:03:35;12.90;;;5.75;;
55031;SDS011;40928;51.076;7.950;2023-01-19T06:06:01;16.20;;;6.65;;
55031;SDS011;40928;51.076;7.950;2023-01-19T06:08:27;10.73;;;5.68;;
55031;SDS011;40928;51.076;7.950;2023-01-19T06:10:53;11.18;;;6.00;;
55031;SDS011;40928;51.076;7.950;2023-01-19T06:13:19;10.35;;;5.10;;
55031;SDS011;40928;51.076;7.950;2023-01-19T06:15:44;13.00;;;6.97;;
55031;SDS011;40928;51.076;7.950;2023-01-19T06:18:10;15.15;;;6.93;;
55031;SDS011;40928;51.076;7.950;2023-01-19T06:20:37;13.40;;;6.30;;
55031;SDS011;40928;51.076;7.950;2023-01-19T06:23:02;12.27;;;6.38;;
55031;SDS011;40928;51.076;7.950;2023-01-19T06:25:28;14.23;;;7.55;;
55031;SDS011;40928;51.076;7.950;2023-01-19T06:27:54;11.57;;;5.72;;
55031;SDS011;40928;51.076;7.950;2023-01-19T06:30:20;15.30;;;6.57;;
55031;SDS011;40928;51.076;7.950;2023-01-19T06:32:45;11.25;;;5.93;;
55031;SDS011;40928;51.076;7.950;2023-01-19T06:35:12;15.38;;;5.93;;
55031;SDS011;40928;51.076;7.950;2023-01-19T06:37:38;12.38;;;6.28;;
55031;SDS011;40928;51.076;7.950;2023-01-19T06:40:04;13.20;;;5.75;;
55031;SDS011;40928;51.076;7.950;2023-01-19T06:42:30;19.90;;;6.80;;
55031;SDS011;40928;51.076;7.950;2023-01-19T06:44:56;15.70;;;6.35;;
55031;SDS011;40928;51.076;7.950;2023-01-19T06:47:21;13.75;;;6.63;;
55031;SDS011;40928;51.076;7.950;2023-01-19T06:49:47;15.80;;;7.03;;
55031;SDS011;40928;51.076;7.950;2023-01-19T06:52:13;13.55;;;6.20;;
55031;SDS011;40928;51.076;7.950;2023-01-19T06:54:40;12.10;;;4.95;;
55031;SDS011;40928;51.076;7.950;2023-01-19T06:57:07;10.88;;;6.30;;
55031;SDS011;40928;51.076;7.950;2023-01-19T06:59:33;15.95;;;6.35;;
55031;SDS011;40928;51.076;7.950;2023-01-19T07:01:59;17.80;;;6.82;;
55031;SDS011;40928;51.076;7.950;2023-01-19T07:04:25;12.98;;;6.60;;
55031;SDS011;40928;51.076;7.950;2023-01-19T07:06:55;12.68;;;6.40;;
55031;SDS011;40928;51.076;7.950;2023-01-19T07:09:21;9.98;;;5.88;;
55031;SDS011;40928;51.076;7.950;2023-01-19T07:11:49;13.82;;;6.40;;
55031;SDS011;40928;51.076;7.950;2023-01-19T07:14:14;11.75;;;6.13;;
55031;SDS011;40928;51.076;7.950;2023-01-19T07:16:42;10.00;;;5.43;;
55031;SDS011;40928;51.076;7.950;2023-01-19T07:19:08;10.52;;;6.45;;
55031;SDS011;40928;51.076;7.950;2023-01-19T07:21:35;13.13;;;5.57;;
55031;SDS011;40928;51.076;7.950;2023-01-19T07:24:01;10.10;;;5.10;;
55031;SDS011;40928;51.076;7.950;2023-01-19T07:26:27;10.82;;;5.30;;
55031;SDS011;40928;51.076;7.950;2023-01-19T07:28:52;8.63;;;5.43;;
55031;SDS011;40928;51.076;7.950;2023-01-19T07:31:21;13.15;;;6.43;;
55031;SDS011;40928;51.076;7.950;2023-01-19T07:33:47;9.75;;;4.47;;
55031;SDS011;40928;51.076;7.950;2023-01-19T07:36:15;11.90;;;5.88;;
55031;SDS011;40928;51.076;7.950;2023-01-19T07:38:41;14.02;;;5.78;;
55031;SDS011;40928;51.076;7.950;2023-01-19T07:41:07;10.00;;;5.10;;
55031;SDS011;40928;51.076;7.950;2023-01-19T07:43:33;7.43;;;4.75;;
55031;SDS011;40928;51.076;7.950;2023-01-19T07:46:04;11.43;;;4.70;;
55031;SDS011;40928;51.076;7.950;2023-01-19T07:48:30;9.55;;;4.50;;
55031;SDS011;40928;51.076;7.950;2023-01-19T07:50:59;8.90;;;4.80;;
55031;SDS011;40928;51.076;7.950;2023-01-19T07:53:28;8.07;;;5.00;;
55031;SDS011;40928;51.076;7.950;2023-01-19T07:55:56;9.25;;;4.72;;
55031;SDS011;40928;51.076;7.950;2023-01-19T07:58:23;6.80;;;3.80;;
55031;SDS011;40928;51.076;7.950;2023-01-19T08:00:49;7.32;;;4.82;;
55031;SDS011;40928;51.076;7.950;2023-01-19T08:03:16;5.93;;;4.32;;
55031;SDS011;40928;51.076;7.950;2023-01-19T08:05:42;9.23;;;4.22;;
55031;SDS011;40928;51.076;7.950;2023-01-19T08:08:07;7.30;;;4.57;;
55031;SDS011;40928;51.076;7.950;2023-01-19T08:10:33;6.63;;;3.60;;
55031;SDS011;40928;51.076;7.950;2023-01-19T08:12:59;7.32;;;3.85;;
55031;SDS011;40928;51.076;7.950;2023-01-19T08:15:24;5.45;;;3.42;;
55031;SDS011;40928;51.076;7.950;2023-01-19T08:17:56;5.57;;;3.80;;
55031;SDS011;40928;51.076;7.950;2023-01-19T08:20:24;7.10;;;3.33;;
55031;SDS011;40928;51.076;7.950;2023-01-19T08:22:51;5.43;;;3.20;;
55031;SDS011;40928;51.076;7.950;2023-01-19T08:25:26;5.47;;;2.92;;
55031;SDS011;40928;51.076;7.950;2023-01-19T08:27:58;6.30;;;3.15;;
55031;SDS011;40928;51.076;7.950;2023-01-19T08:30:23;6.43;;;3.45;;
55031;SDS011;40928;51.076;7.950;2023-01-19T08:32:51;4.95;;;2.88;;
55031;SDS011;40928;51.076;7.950;2023-01-19T08:35:18;4.97;;;3.05;;
55031;SDS011;40928;51.076;7.950;2023-01-19T08:37:44;5.40;;;2.97;;
55031;SDS011;40928;51.076;7.950;2023-01-19T08:40:10;5.97;;;3.28;;
55031;SDS011;40928;51.076;7.950;2023-01-19T08:42:36;4.25;;;2.58;;
55031;SDS011;40928;51.076;7.950;2023-01-19T08:45:01;3.90;;;2.78;;
55031;SDS011;40928;51.076;7.950;2023-01-19T08:47:27;3.92;;;2.63;;
55031;SDS011;40928;51.076;7.950;2023-01-19T08:49:53;3.00;;;2.05;;
55031;SDS011;40928;51.076;7.950;2023-01-19T08:52:19;5.93;;;3.30;;
55031;SDS011;40928;51.076;7.950;2023-01-19T08:54:51;5.25;;;2.60;;
55031;SDS011;40928;51.076;7.950;2023-01-19T08:57:17;6.90;;;3.05;;
55031;SDS011;40928;51.076;7.950;2023-01-19T08:59:43;2.97;;;2.05;;
55031;SDS011;40928;51.076;7.950;2023-01-19T09:02:11;3.28;;;2.17;;
55031;SDS011;40928;51.076;7.950;2023-01-19T09:04:37;4.22;;;2.53;;
55031;SDS011;40928;51.076;7.950;2023-01-19T09:07:02;4.82;;;2.45;;
55031;SDS011;40928;51.076;7.950;2023-01-19T09:09:28;3.70;;;1.80;;
55031;SDS011;40928;51.076;7.950;2023-01-19T09:11:53;2.70;;;2.05;;
55031;SDS011;40928;51.076;7.950;2023-01-19T09:14:19;3.25;;;2.17;;
55031;SDS011;40928;51.076;7.950;2023-01-19T09:16:45;2.53;;;1.70;;
55031;SDS011;40928;51.076;7.950;2023-01-19T09:19:11;4.03;;;2.13;;
55031;SDS011;40928;51.076;7.950;2023-01-19T09:21:38;4.65;;;1.70;;
55031;SDS011;40928;51.076;7.950;2023-01-19T09:24:03;3.75;;;2.13;;
55031;SDS011;40928;51.076;7.950;2023-01-19T09:26:29;5.45;;;1.95;;
55031;SDS011;40928;51.076;7.950;2023-01-19T09:28:55;2.63;;;1.70;;
55031;SDS011;40928;51.076;7.950;2023-01-19T09:31:21;2.38;;;1.77;;
55031;SDS011;40928;51.076;7.950;2023-01-19T09:33:47;1.35;;;1.08;;
55031;SDS011;40928;51.076;7.950;2023-01-19T09:36:13;2.33;;;1.40;;
55031;SDS011;40928;51.076;7.950;2023-01-19T09:38:38;2.75;;;1.75;;
55031;SDS011;40928;51.076;7.950;2023-01-19T09:41:18;3.17;;;1.55;;
55031;SDS011;40928;51.076;7.950;2023-01-19T09:43:47;3.25;;;1.85;;
55031;SDS011;40928;51.076;7.950;2023-01-19T09:46:24;3.10;;;1.50;;
55031;SDS011;40928;51.076;7.950;2023-01-19T09:48:58;2.28;;;1.60;;
55031;SDS011;40928;51.076;7.950;2023-01-19T09:51:33;3.47;;;1.60;;
55031;SDS011;40928;51.076;7.950;2023-01-19T09:54:15;2.17;;;1.30;;
55031;SDS011;40928;51.076;7.950;2023-01-19T09:56:44;1.85;;;1.20;;
55031;SDS011;40928;51.076;7.950;2023-01-19T09:59:22;3.33;;;1.60;;
55031;SDS011;40928;51.076;7.950;2023-01-19T10:05:01;2.13;;;1.48;;
55031;SDS011;40928;51.076;7.950;2023-01-19T10:10:55;3.40;;;1.95;;
55031;SDS011;40928;51.076;7.950;2023-01-19T10:18:46;2.22;;;1.70;;
55031;SDS011;40928;51.076;7.950;2023-01-19T10:21:23;3.42;;;1.80;;
55031;SDS011;40928;51.076;7.950;2023-01-19T10:23:54;2.10;;;1.80;;
55031;SDS011;40928;51.076;7.950;2023-01-19T10:29:04;3.83;;;2.38;;
55031;SDS011;40928;51.076;7.950;2023-01-19T10:32:02;3.65;;;1.88;;
55031;SDS011;40928;51.076;7.950;2023-01-19T10:34:34;5.22;;;2.50;;
55031;SDS011;40928;51.076;7.950;2023-01-19T10:37:11;3.22;;;2.00;;
55031;SDS011;40928;51.076;7.950;2023-01-19T10:39:53;3.13;;;2.40;;
55031;SDS011;40928;51.076;7.950;2023-01-19T10:42:24;2.47;;;1.80;;
55031;SDS011;40928;51.076;7.950;2023-01-19T10:44:56;4.93;;;2.33;;
55031;SDS011;40928;51.076;7.950;2023-01-19T10:47:34;4.50;;;2.95;;
55031;SDS011;40928;51.076;7.950;2023-01-19T10:53:00;3.05;;;2.20;;
55031;SDS011;40928;51.076;7.950;2023-01-19T10:55:36;10.45;;;2.53;;
55031;SDS011;40928;51.076;7.950;2023-01-19T10:58:04;4.53;;;2.45;;
55031;SDS011;40928;51.076;7.950;2023-01-19T11:00:50;5.93;;;2.40;;
55031;SDS011;40928;51.076;7.950;2023-01-19T11:03:21;6.68;;;3.03;;
55031;SDS011;40928;51.076;7.950;2023-01-19T11:05:48;6.68;;;2.90;;
55031;SDS011;40928;51.076;7.950;2023-01-19T11:08:21;4.60;;;3.13;;
55031;SDS011;40928;51.076;7.950;2023-01-19T11:10:54;6.15;;;2.90;;
55031;SDS011;40928;51.076;7.950;2023-01-19T11:13:26;4.05;;;2.85;;
55031;SDS011;40928;51.076;7.950;2023-01-19T11:15:55;8.60;;;3.13;;
55031;SDS011;40928;51.076;7.950;2023-01-19T11:18:28;8.40;;;3.97;;
55031;SDS011;40928;51.076;7.950;2023-01-19T11:20:56;8.38;;;3.30;;
55031;SDS011;40928;51.076;7.950;2023-01-19T11:23:30;4.13;;;2.95;;
55031;SDS011;40928;51.076;7.950;2023-01-19T11:25:59;6.32;;;3.85;;
55031;SDS011;40928;51.076;7.950;2023-01-19T11:30:53;5.28;;;3.20;;
55031;SDS011;40928;51.076;7.950;2023-01-19T11:33:32;6.18;;;3.05;;
55031;SDS011;40928;51.076;7.950;2023-01-19T11:36:06;15.18;;;4.03;;
55031;SDS011;40928;51.076;7.950;2023-01-19T11:38:42;4.28;;;2.92;;
55031;SDS011;40928;51.076;7.950;2023-01-19T11:41:18;5.50;;;2.80;;
55031;SDS011;40928;51.076;7.950;2023-01-19T11:43:47;4.65;;;3.05;;
55031;SDS011;40928;51.076;7.950;2023-01-19T11:46:17;5.38;;;3.30;;
55031;SDS011;40928;51.076;7.950;2023-01-19T11:48:45;6.65;;;3.42;;
55031;SDS011;40928;51.076;7.950;2023-01-19T11:51:20;6.03;;;3.00;;
55031;SDS011;40928;51.076;7.950;2023-01-19T11:53:50;12.65;;;3.60;;
55031;SDS011;40928;51.076;7.950;2023-01-19T11:56:16;5.55;;;3.28;;
55031;SDS011;40928;51.076;7.950;2023-01-19T11:58:46;7.25;;;3.63;;
55031;SDS011;40928;51.076;7.950;2023-01-19T12:03:48;7.88;;;3.88;;
55031;SDS011;40928;51.076;7.950;2023-01-19T12:06:24;5.18;;;3.08;;
55031;SDS011;40928;51.076;7.950;2023-01-19T12:14:54;7.82;;;3.35;;
55031;SDS011;40928;51.076;7.950;2023-01-19T12:17:31;8.88;;;3.95;;
55031;SDS011;40928;51.076;7.950;2023-01-19T12:28:29;6.55;;;3.63;;
55031;SDS011;40928;51.076;7.950;2023-01-19T12:30:59;6.88;;;3.70;;
55031;SDS011;40928;51.076;7.950;2023-01-19T12:36:02;7.07;;;4.35;;
55031;SDS011;40928;51.076;7.950;2023-01-19T12:41:43;9.00;;;4.78;;
55031;SDS011;40928;51.076;7.950;2023-01-19T12:44:15;13.70;;;4.80;;
55031;SDS011;40928;51.076;7.950;2023-01-19T12:49:32;9.02;;;4.97;;
55031;SDS011;40928;51.076;7.950;2023-01-19T13:00:05;14.02;;;6.18;;
55031;SDS011;40928;51.076;7.950;2023-01-19T13:02:51;11.52;;;6.30;;
55031;SDS011;40928;51.076;7.950;2023-01-19T13:18:57;15.40;;;8.23;;
55031;SDS011;40928;51.076;7.950;2023-01-19T13:21:45;23.02;;;9.50;;
55031;SDS011;40928;51.076;7.950;2023-01-19T13:24:13;18.05;;;8.75;;
55031;SDS011;40928;51.076;7.950;2023-01-19T13:32:02;34.22;;;9.07;;
55031;SDS011;40928;51.076;7.950;2023-01-19T13:34:43;18.27;;;8.15;;
55031;SDS011;40928;51.076;7.950;2023-01-19T13:37:16;18.15;;;7.72;;
55031;SDS011;40928;51.076;7.950;2023-01-19T13:39:45;22.75;;;9.50;;
55031;SDS011;40928;51.076;7.950;2023-01-19T13:45:31;20.27;;;8.48;;
55031;SDS011;40928;51.076;7.950;2023-01-19T13:48:03;23.67;;;10.05;;
55031;SDS011;40928;51.076;7.950;2023-01-19T13:50:35;19.42;;;8.75;;
55031;SDS011;40928;51.076;7.950;2023-01-19T13:53:16;15.40;;;7.25;;
55031;SDS011;40928;51.076;7.950;2023-01-19T13:56:03;22.80;;;8.60;;
55031;SDS011;40928;51.076;7.950;2023-01-19T13:58:32;23.00;;;7.60;;
55031;SDS011;40928;51.076;7.950;2023-01-19T14:00:57;18.73;;;7.60;;
55031;SDS011;40928;51.076;7.950;2023-01-19T14:03:25;16.70;;;6.93;;
55031;SDS011;40928;51.076;7.950;2023-01-19T14:05:52;15.02;;;8.20;;
55031;SDS011;40928;51.076;7.950;2023-01-19T14:08:19;14.85;;;7.07;;
55031;SDS011;40928;51.076;7.950;2023-01-19T14:13:33;18.55;;;6.55;;
55031;SDS011;40928;51.076;7.950;2023-01-19T14:16:12;15.30;;;6.10;;
55031;SDS011;40928;51.076;7.950;2023-01-19T14:18:42;15.10;;;7.05;;
55031;SDS011;40928;51.076;7.950;2023-01-19T14:21:08;14.38;;;6.75;;
55031;SDS011;40928;51.076;7.950;2023-01-19T14:23:51;15.35;;;7.47;;
55031;SDS011;40928;51.076;7.950;2023-01-19T14:32:05;20.63;;;7.03;;
55031;SDS011;40928;51.076;7.950;2023-01-19T14:34:41;24.92;;;7.38;;
55031;SDS011;40928;51.076;7.950;2023-01-19T14:39:43;21.00;;;8.75;;
55031;SDS011;40928;51.076;7.950;2023-01-19T14:42:13;20.35;;;9.55;;
55031;SDS011;40928;51.076;7.950;2023-01-19T14:47:55;22.67;;;9.55;;
55031;SDS011;40928;51.076;7.950;2023-01-19T14:50:31;21.38;;;8.90;;
55031;SDS011;40928;51.076;7.950;2023-01-19T14:53:03;26.40;;;11.55;;
55031;SDS011;40928;51.076;7.950;2023-01-19T14:55:51;20.95;;;10.15;;
55031;SDS011;40928;51.076;7.950;2023-01-19T14:58:23;19.60;;;9.90;;
55031;SDS011;40928;51.076;7.950;2023-01-19T15:00:54;22.38;;;8.32;;
55031;SDS011;40928;51.076;7.950;2023-01-19T15:03:27;21.35;;;8.82;;
55031;SDS011;40928;51.076;7.950;2023-01-19T15:05:56;20.58;;;8.80;;
55031;SDS011;40928;51.076;7.950;2023-01-19T15:08:26;26.85;;;9.50;;
55031;SDS011;40928;51.076;7.950;2023-01-19T15:10:54;21.10;;;8.77;;
55031;SDS011;40928;51.076;7.950;2023-01-19T15:13:20;29.90;;;11.45;;
55031;SDS011;40928;51.076;7.950;2023-01-19T15:15:48;21.10;;;10.32;;
55031;SDS011;40928;51.076;7.950;2023-01-19T15:18:15;25.40;;;10.45;;
55031;SDS011;40928;51.076;7.950;2023-01-19T15:20:43;22.48;;;9.18;;
55031;SDS011;40928;51.076;7.950;2023-01-19T15:23:09;23.00;;;10.30;;
55031;SDS011;40928;51.076;7.950;2023-01-19T15:25:35;22.00;;;8.35;;
55031;SDS011;40928;51.076;7.950;2023-01-19T15:28:14;18.70;;;8.25;;
55031;SDS011;40928;51.076;7.950;2023-01-19T15:30:42;20.05;;;8.68;;
55031;SDS011;40928;51.076;7.950;2023-01-19T15:33:27;25.38;;;7.63;;
55031;SDS011;40928;51.076;7.950;2023-01-19T15:35:56;24.00;;;8.27;;
55031;SDS011;40928;51.076;7.950;2023-01-19T15:38:22;27.33;;;8.93;;
55031;SDS011;40928;51.076;7.950;2023-01-19T15:40:48;21.00;;;8.73;;
55031;SDS011;40928;51.076;7.950;2023-01-19T15:43:14;26.15;;;8.43;;
55031;SDS011;40928;51.076;7.950;2023-01-19T15:45:41;17.58;;;8.90;;
55031;SDS011;40928;51.076;7.950;2023-01-19T15:48:26;20.95;;;9.02;;
55031;SDS011;40928;51.076;7.950;2023-01-19T15:50:52;23.23;;;10.35;;
55031;SDS011;40928;51.076;7.950;2023-01-19T15:53:18;22.65;;;9.90;;
55031;SDS011;40928;51.076;7.950;2023-01-19T15:55:48;39.30;;;11.88;;
55031;SDS011;40928;51.076;7.950;2023-01-19T15:58:15;16.23;;;8.35;;
55031;SDS011;40928;51.076;7.950;2023-01-19T16:00:41;21.13;;;8.43;;
55031;SDS011;40928;51.076;7.950;2023-01-19T16:03:06;19.50;;;8.10;;
55031;SDS011;40928;51.076;7.950;2023-01-19T16:05:32;19.15;;;9.82;;
55031;SDS011;40928;51.076;7.950;2023-01-19T16:07:57;19.80;;;9.07;;
55031;SDS011;40928;51.076;7.950;2023-01-19T16:10:23;24.35;;;10.70;;
55031;SDS011;40928;51.076;7.950;2023-01-19T16:12:49;26.27;;;9.88;;
55031;SDS011;40928;51.076;7.950;2023-01-19T16:15:15;18.40;;;9.23;;
55031;SDS011;40928;51.076;7.950;2023-01-19T16:17:41;29.35;;;11.50;;
55031;SDS011;40928;51.076;7.950;2023-01-19T16:20:07;25.00;;;10.30;;
55031;SDS011;40928;51.076;7.950;2023-01-19T16:22:34;34.75;;;12.68;;
55031;SDS011;40928;51.076;7.950;2023-01-19T16:25:01;23.95;;;11.10;;
55031;SDS011;40928;51.076;7.950;2023-01-19T16:27:26;19.73;;;10.43;;
55031;SDS011;40928;51.076;7.950;2023-01-19T16:29:52;24.60;;;11.57;;
55031;SDS011;40928;51.076;7.950;2023-01-19T16:32:18;23.90;;;11.95;;
55031;SDS011;40928;51.076;7.950;2023-01-19T16:34:44;22.85;;;11.02;;
55031;SDS011;40928;51.076;7.950;2023-01-19T16:37:10;29.83;;;11.40;;
55031;SDS011;40928;51.076;7.950;2023-01-19T16:39:36;21.33;;;10.52;;
55031;SDS011;40928;51.076;7.950;2023-01-19T16:42:01;23.38;;;11.13;;
55031;SDS011;40928;51.076;7.950;2023-01-19T16:44:27;20.92;;;10.15;;